Hayes, North Carolina
Current Conditions -  °F | °C
As of 6:35 PM on Saturday 22 Nov 2014 (Local Time) from KUKF Reporting Station
Clear Clear  
Wind Chill: 41°   Ceiling: Unl
Heat Index: 41°   Visibility: 10mi
Dew Point: 19°   Wind: 0mph
Humidity: 42%   Direction: NA
Pressure: 30.38"   Gusts: NA
Location:  36.3564°N, 81.1253°W
Report Text: KUKF 222335Z AUTO 00000KT 10SM CLR 05/M07 A3038 RMK AO2
Loading
Personal Weather Stations






























Interactive Weather Map New forecast layout! Learn more

10-Day Weather Forecast

Advertisements
Track Severe Weather on mobile